Terminal Aerodrome Forecast
Issued by NWS Kansas City/Pleasant Hill, MO

Home | Current Version | Previous Version | Text Only | Print | Product List | Glossary On
Versions: 1 2 3 4 5 6 7 8 9 10 11 12 13 14 15 16
000
FTUS43 KEAX 011100
TAFMCI
TAF
KMCI 011120Z 0112/0212 VRB03KT 6SM BR OVC040
     FM011500 30006KT 4SM -SN OVC025
     FM011900 31006KT P6SM OVC050
     FM020000 VRB04KT P6SM OVC200=

USA.gov is the U.S. government's official web portal to all federal, state and local government web resources and services.